sensor_id;sensor_type;location;lat;lon;timestamp;pressure;altitude;pressure_sealevel;temperature;humidity
40908;BME280;51055;59.436;24.778;2023-04-25T00:01:02;100411.22;;;9.02;100.00
40908;BME280;51055;59.436;24.778;2023-04-25T00:03:31;100405.56;;;9.07;100.00
40908;BME280;51055;59.436;24.778;2023-04-25T00:05:59;100401.34;;;9.04;100.00
40908;BME280;51055;59.436;24.778;2023-04-25T00:08:29;100398.84;;;9.03;100.00
40908;BME280;51055;59.436;24.778;2023-04-25T00:10:58;100404.72;;;9.06;100.00
40908;BME280;51055;59.436;24.778;2023-04-25T00:13:26;100414.22;;;9.09;100.00
40908;BME280;51055;59.436;24.778;2023-04-25T00:15:54;100417.47;;;9.12;100.00
40908;BME280;51055;59.436;24.778;2023-04-25T00:18:22;100421.53;;;9.16;100.00
40908;BME280;51055;59.436;24.778;2023-04-25T00:20:50;100421.69;;;9.15;100.00
40908;BME280;51055;59.436;24.778;2023-04-25T00:23:18;100418.44;;;9.11;100.00
40908;BME280;51055;59.436;24.778;2023-04-25T00:25:47;100416.63;;;9.12;100.00
40908;BME280;51055;59.436;24.778;2023-04-25T00:28:16;100413.59;;;9.16;100.00
40908;BME280;51055;59.436;24.778;2023-04-25T00:30:44;100411.81;;;9.17;100.00
40908;BME280;51055;59.436;24.778;2023-04-25T00:33:12;100407.13;;;9.20;100.00
40908;BME280;51055;59.436;24.778;2023-04-25T00:35:40;100412.06;;;9.14;100.00
40908;BME280;51055;59.436;24.778;2023-04-25T00:38:07;100421.06;;;9.11;100.00
40908;BME280;51055;59.436;24.778;2023-04-25T00:40:35;100425.53;;;9.11;100.00
40908;BME280;51055;59.436;24.778;2023-04-25T00:43:03;100424.69;;;9.10;100.00
40908;BME280;51055;59.436;24.778;2023-04-25T00:45:37;100431.75;;;9.10;100.00
40908;BME280;51055;59.436;24.778;2023-04-25T00:48:06;100438.88;;;9.09;100.00
40908;BME280;51055;59.436;24.778;2023-04-25T00:50:33;100426.97;;;9.04;100.00
40908;BME280;51055;59.436;24.778;2023-04-25T00:53:02;100427.69;;;9.06;100.00
40908;BME280;51055;59.436;24.778;2023-04-25T00:55:31;100434.78;;;9.05;100.00
40908;BME280;51055;59.436;24.778;2023-04-25T00:57:59;100433.00;;;9.06;100.00
40908;BME280;51055;59.436;24.778;2023-04-25T01:00:28;100426.34;;;9.00;100.00
40908;BME280;51055;59.436;24.778;2023-04-25T01:02:56;100422.66;;;9.03;100.00
40908;BME280;51055;59.436;24.778;2023-04-25T01:05:24;100424.56;;;9.01;100.00
40908;BME280;51055;59.436;24.778;2023-04-25T01:07:52;100423.59;;;9.02;100.00
40908;BME280;51055;59.436;24.778;2023-04-25T01:10:20;100411.94;;;8.93;100.00
40908;BME280;51055;59.436;24.778;2023-04-25T01:12:48;100415.16;;;8.97;100.00
40908;BME280;51055;59.436;24.778;2023-04-25T01:15:16;100403.53;;;8.99;100.00
40908;BME280;51055;59.436;24.778;2023-04-25T01:17:43;100407.22;;;8.97;100.00
40908;BME280;51055;59.436;24.778;2023-04-25T01:20:12;100416.84;;;8.98;100.00
40908;BME280;51055;59.436;24.778;2023-04-25T01:22:42;100423.09;;;8.97;100.00
40908;BME280;51055;59.436;24.778;2023-04-25T01:25:11;100413.97;;;8.89;100.00
40908;BME280;51055;59.436;24.778;2023-04-25T01:27:39;100405.31;;;8.87;100.00
40908;BME280;51055;59.436;24.778;2023-04-25T01:30:09;100395.19;;;8.81;100.00
40908;BME280;51055;59.436;24.778;2023-04-25T01:32:37;100397.97;;;8.80;100.00
40908;BME280;51055;59.436;24.778;2023-04-25T01:35:08;100400.38;;;8.83;100.00
40908;BME280;51055;59.436;24.778;2023-04-25T01:37:40;100395.91;;;8.83;100.00
40908;BME280;51055;59.436;24.778;2023-04-25T01:40:09;100401.09;;;8.85;100.00
40908;BME280;51055;59.436;24.778;2023-04-25T01:42:42;100392.22;;;8.86;100.00
40908;BME280;51055;59.436;24.778;2023-04-25T01:45:10;100391.38;;;8.85;100.00
40908;BME280;51055;59.436;24.778;2023-04-25T01:47:39;100386.06;;;8.85;100.00
40908;BME280;51055;59.436;24.778;2023-04-25T01:50:08;100375.59;;;8.84;100.00
40908;BME280;51055;59.436;24.778;2023-04-25T01:52:36;100372.34;;;8.80;100.00
40908;BME280;51055;59.436;24.778;2023-04-25T01:55:04;100374.38;;;8.77;100.00
40908;BME280;51055;59.436;24.778;2023-04-25T01:57:32;100364.28;;;8.71;100.00
40908;BME280;51055;59.436;24.778;2023-04-25T02:00:03;100359.00;;;8.71;100.00
40908;BME280;51055;59.436;24.778;2023-04-25T02:02:32;100358.16;;;8.70;100.00
40908;BME280;51055;59.436;24.778;2023-04-25T02:05:00;100357.69;;;8.65;100.00
40908;BME280;51055;59.436;24.778;2023-04-25T02:07:28;100357.06;;;8.62;100.00
40908;BME280;51055;59.436;24.778;2023-04-25T02:09:56;100359.97;;;8.59;100.00
40908;BME280;51055;59.436;24.778;2023-04-25T02:12:23;100361.88;;;8.57;100.00
40908;BME280;51055;59.436;24.778;2023-04-25T02:14:53;100359.09;;;8.58;100.00
40908;BME280;51055;59.436;24.778;2023-04-25T02:17:22;100355.63;;;8.58;100.00
40908;BME280;51055;59.436;24.778;2023-04-25T02:19:49;100353.97;;;8.57;100.00
40908;BME280;51055;59.436;24.778;2023-04-25T02:22:17;100348.53;;;8.58;100.00
40908;BME280;51055;59.436;24.778;2023-04-25T02:24:46;100346.88;;;8.57;100.00
40908;BME280;51055;59.436;24.778;2023-04-25T02:27:13;100347.69;;;8.58;100.00
40908;BME280;51055;59.436;24.778;2023-04-25T02:29:41;100347.22;;;8.53;100.00
40908;BME280;51055;59.436;24.778;2023-04-25T02:32:09;100347.06;;;8.54;100.00
40908;BME280;51055;59.436;24.778;2023-04-25T02:34:37;100341.22;;;8.51;100.00
40908;BME280;51055;59.436;24.778;2023-04-25T02:37:05;100335.78;;;8.52;100.00
40908;BME280;51055;59.436;24.778;2023-04-25T02:39:32;100339.28;;;8.53;100.00
40908;BME280;51055;59.436;24.778;2023-04-25T02:42:00;100335.94;;;8.51;100.00
40908;BME280;51055;59.436;24.778;2023-04-25T02:44:28;100328.81;;;8.51;100.00
40908;BME280;51055;59.436;24.778;2023-04-25T02:46:56;100325.22;;;8.52;100.00
40908;BME280;51055;59.436;24.778;2023-04-25T02:49:23;100321.63;;;8.53;100.00
40908;BME280;51055;59.436;24.778;2023-04-25T02:51:51;100321.63;;;8.53;100.00
40908;BME280;51055;59.436;24.778;2023-04-25T02:54:19;100328.72;;;8.53;100.00
40908;BME280;51055;59.436;24.778;2023-04-25T02:56:46;100322.25;;;8.57;100.00
40908;BME280;51055;59.436;24.778;2023-04-25T02:59:14;100322.34;;;8.55;100.00
40908;BME280;51055;59.436;24.778;2023-04-25T03:01:42;100315.34;;;8.54;100.00
40908;BME280;51055;59.436;24.778;2023-04-25T03:04:10;100319.09;;;8.52;100.00
40908;BME280;51055;59.436;24.778;2023-04-25T03:06:38;100317.06;;;8.55;100.00
40908;BME280;51055;59.436;24.778;2023-04-25T03:09:05;100312.50;;;8.57;100.00
40908;BME280;51055;59.436;24.778;2023-04-25T03:11:34;100305.88;;;8.52;100.00
40908;BME280;51055;59.436;24.778;2023-04-25T03:14:01;100306.38;;;8.57;100.00
40908;BME280;51055;59.436;24.778;2023-04-25T03:16:29;100306.13;;;8.60;100.00
40908;BME280;51055;59.436;24.778;2023-04-25T03:18:58;100304.22;;;8.51;100.00
40908;BME280;51055;59.436;24.778;2023-04-25T03:21:25;100302.88;;;8.56;100.00
40908;BME280;51055;59.436;24.778;2023-04-25T03:23:53;100301.78;;;8.59;100.00
40908;BME280;51055;59.436;24.778;2023-04-25T03:26:21;100300.59;;;8.63;100.00
40908;BME280;51055;59.436;24.778;2023-04-25T03:28:48;100300.22;;;8.67;100.00
40908;BME280;51055;59.436;24.778;2023-04-25T03:31:16;100300.13;;;8.69;100.00
40908;BME280;51055;59.436;24.778;2023-04-25T03:33:44;100299.16;;;8.70;100.00
40908;BME280;51055;59.436;24.778;2023-04-25T03:36:11;100296.38;;;8.71;100.00
40908;BME280;51055;59.436;24.778;2023-04-25T03:38:39;100297.22;;;8.72;100.00
40908;BME280;51055;59.436;24.778;2023-04-25T03:41:09;100290.38;;;8.80;100.00
40908;BME280;51055;59.436;24.778;2023-04-25T03:43:36;100289.06;;;8.86;100.00
40908;BME280;51055;59.436;24.778;2023-04-25T03:46:04;100287.63;;;8.82;100.00
40908;BME280;51055;59.436;24.778;2023-04-25T03:48:32;100284.13;;;8.81;100.00
40908;BME280;51055;59.436;24.778;2023-04-25T03:50:59;100280.03;;;8.88;100.00
40908;BME280;51055;59.436;24.778;2023-04-25T03:53:27;100285.34;;;8.88;100.00
40908;BME280;51055;59.436;24.778;2023-04-25T03:55:55;100282.53;;;8.90;100.00
40908;BME280;51055;59.436;24.778;2023-04-25T03:58:22;100281.50;;;8.93;100.00
40908;BME280;51055;59.436;24.778;2023-04-25T04:00:51;100275.09;;;8.95;100.00
40908;BME280;51055;59.436;24.778;2023-04-25T04:03:19;100264.72;;;9.03;100.00
40908;BME280;51055;59.436;24.778;2023-04-25T04:05:48;100271.72;;;9.04;100.00
40908;BME280;51055;59.436;24.778;2023-04-25T04:08:16;100277.75;;;9.06;100.00
40908;BME280;51055;59.436;24.778;2023-04-25T04:10:43;100266.78;;;9.11;100.00
40908;BME280;51055;59.436;24.778;2023-04-25T04:13:11;100260.97;;;9.17;100.00
40908;BME280;51055;59.436;24.778;2023-04-25T04:15:39;100263.03;;;9.24;100.00
40908;BME280;51055;59.436;24.778;2023-04-25T04:18:07;100267.69;;;9.32;100.00
40908;BME280;51055;59.436;24.778;2023-04-25T04:20:34;100261.31;;;9.34;100.00
40908;BME280;51055;59.436;24.778;2023-04-25T04:23:02;100268.88;;;9.39;100.00
40908;BME280;51055;59.436;24.778;2023-04-25T04:25:30;100266.94;;;9.41;100.00
40908;BME280;51055;59.436;24.778;2023-04-25T04:27:58;100267.66;;;9.43;100.00
40908;BME280;51055;59.436;24.778;2023-04-25T04:30:26;100265.72;;;9.45;100.00
40908;BME280;51055;59.436;24.778;2023-04-25T04:32:57;100267.03;;;9.51;100.00
40908;BME280;51055;59.436;24.778;2023-04-25T04:35:25;100265.22;;;9.51;100.00
40908;BME280;51055;59.436;24.778;2023-04-25T04:37:53;100268.31;;;9.56;100.00
40908;BME280;51055;59.436;24.778;2023-04-25T04:40:21;100268.22;;;9.58;100.00
40908;BME280;51055;59.436;24.778;2023-04-25T04:42:49;100262.78;;;9.59;100.00
40908;BME280;51055;59.436;24.778;2023-04-25T04:45:16;100265.91;;;9.64;100.00
40908;BME280;51055;59.436;24.778;2023-04-25T04:47:44;100262.25;;;9.65;100.00
40908;BME280;51055;59.436;24.778;2023-04-25T04:50:13;100266.34;;;9.69;100.00
40908;BME280;51055;59.436;24.778;2023-04-25T04:52:42;100264.44;;;9.71;100.00
40908;BME280;51055;59.436;24.778;2023-04-25T04:55:10;100265.72;;;9.77;100.00
40908;BME280;51055;59.436;24.778;2023-04-25T04:57:38;100260.16;;;9.80;100.00
40908;BME280;51055;59.436;24.778;2023-04-25T05:00:07;100263.41;;;9.83;100.00
40908;BME280;51055;59.436;24.778;2023-04-25T05:02:38;100267.47;;;9.87;100.00
40908;BME280;51055;59.436;24.778;2023-04-25T05:05:07;100260.81;;;9.93;100.00
40908;BME280;51055;59.436;24.778;2023-04-25T05:07:35;100260.44;;;9.98;100.00
40908;BME280;51055;59.436;24.778;2023-04-25T05:10:03;100263.53;;;10.03;100.00
40908;BME280;51055;59.436;24.778;2023-04-25T05:12:31;100254.94;;;10.10;100.00
40908;BME280;51055;59.436;24.778;2023-04-25T05:15:00;100265.81;;;10.28;100.00
40908;BME280;51055;59.436;24.778;2023-04-25T05:17:28;100267.69;;;10.37;100.00
40908;BME280;51055;59.436;24.778;2023-04-25T05:19:56;100268.97;;;10.42;100.00
40908;BME280;51055;59.436;24.778;2023-04-25T05:22:24;100265.19;;;10.45;100.00
40908;BME280;51055;59.436;24.778;2023-04-25T05:24:52;100268.31;;;10.50;100.00
40908;BME280;51055;59.436;24.778;2023-04-25T05:27:23;100269.72;;;10.54;100.00
40908;BME280;51055;59.436;24.778;2023-04-25T05:29:51;100266.09;;;10.55;100.00
40908;BME280;51055;59.436;24.778;2023-04-25T05:32:21;100266.78;;;10.57;100.00
40908;BME280;51055;59.436;24.778;2023-04-25T05:34:49;100266.09;;;10.55;100.00
40908;BME280;51055;59.436;24.778;2023-04-25T05:37:17;100260.66;;;10.57;100.00
40908;BME280;51055;59.436;24.778;2023-04-25T05:39:44;100260.81;;;10.65;100.00
40908;BME280;51055;59.436;24.778;2023-04-25T05:42:12;100267.00;;;10.75;100.00
40908;BME280;51055;59.436;24.778;2023-04-25T05:44:39;100270.53;;;10.85;100.00
40908;BME280;51055;59.436;24.778;2023-04-25T05:47:07;100268.34;;;10.99;100.00
40908;BME280;51055;59.436;24.778;2023-04-25T05:49:34;100273.72;;;11.09;100.00
40908;BME280;51055;59.436;24.778;2023-04-25T05:52:02;100278.88;;;11.20;100.00
40908;BME280;51055;59.436;24.778;2023-04-25T05:54:30;100267.72;;;11.36;100.00
40908;BME280;51055;59.436;24.778;2023-04-25T05:56:58;100268.72;;;11.44;100.00
40908;BME280;51055;59.436;24.778;2023-04-25T05:59:26;100263.56;;;11.52;100.00
40908;BME280;51055;59.436;24.778;2023-04-25T06:01:53;100262.31;;;11.57;100.00
40908;BME280;51055;59.436;24.778;2023-04-25T06:04:21;100262.59;;;11.63;100.00
40908;BME280;51055;59.436;24.778;2023-04-25T06:06:49;100269.06;;;11.70;100.00
40908;BME280;51055;59.436;24.778;2023-04-25T06:09:16;100260.94;;;12.00;100.00
40908;BME280;51055;59.436;24.778;2023-04-25T06:11:44;100259.63;;;12.61;100.00
40908;BME280;51055;59.436;24.778;2023-04-25T06:14:12;100251.22;;;12.65;96.64
40908;BME280;51055;59.436;24.778;2023-04-25T06:16:40;100259.22;;;13.20;95.41
40908;BME280;51055;59.436;24.778;2023-04-25T06:19:07;100253.88;;;13.47;91.05
40908;BME280;51055;59.436;24.778;2023-04-25T06:21:36;100250.28;;;14.35;86.04
40908;BME280;51055;59.436;24.778;2023-04-25T06:24:04;100240.06;;;16.29;77.48
40908;BME280;51055;59.436;24.778;2023-04-25T06:26:32;100247.91;;;19.25;63.66
40908;BME280;51055;59.436;24.778;2023-04-25T06:29:00;100244.09;;;21.09;53.34
40908;BME280;51055;59.436;24.778;2023-04-25T06:31:28;100240.16;;;22.31;48.02
40908;BME280;51055;59.436;24.778;2023-04-25T06:33:56;100237.00;;;22.74;45.39
40908;BME280;51055;59.436;24.778;2023-04-25T06:36:24;100243.38;;;22.93;44.41
40908;BME280;51055;59.436;24.778;2023-04-25T06:38:55;100250.53;;;22.74;43.58
40908;BME280;51055;59.436;24.778;2023-04-25T06:41:22;100250.97;;;20.01;49.04
40908;BME280;51055;59.436;24.778;2023-04-25T06:43:50;100250.09;;;18.19;55.56
40908;BME280;51055;59.436;24.778;2023-04-25T06:46:18;100244.28;;;17.48;59.19
40908;BME280;51055;59.436;24.778;2023-04-25T06:48:46;100242.16;;;17.43;58.70
40908;BME280;51055;59.436;24.778;2023-04-25T06:51:14;100242.16;;;18.78;55.13
40908;BME280;51055;59.436;24.778;2023-04-25T06:53:42;100236.97;;;21.62;46.98
40908;BME280;51055;59.436;24.778;2023-04-25T06:56:10;100244.28;;;23.24;42.33
40908;BME280;51055;59.436;24.778;2023-04-25T06:58:38;100246.97;;;22.80;41.83
40908;BME280;51055;59.436;24.778;2023-04-25T07:01:06;100253.41;;;20.72;45.42
40908;BME280;51055;59.436;24.778;2023-04-25T07:03:34;100256.31;;;18.20;52.74
40908;BME280;51055;59.436;24.778;2023-04-25T07:06:02;100257.03;;;17.77;54.54
40908;BME280;51055;59.436;24.778;2023-04-25T07:08:30;100254.34;;;17.46;55.31
40908;BME280;51055;59.436;24.778;2023-04-25T07:10:58;100255.47;;;16.90;56.29
40908;BME280;51055;59.436;24.778;2023-04-25T07:13:26;100254.25;;;17.70;53.78
40908;BME280;51055;59.436;24.778;2023-04-25T07:15:54;100259.03;;;17.75;52.11
40908;BME280;51055;59.436;24.778;2023-04-25T07:18:23;100259.75;;;16.68;55.94
40908;BME280;51055;59.436;24.778;2023-04-25T07:20:51;100250.78;;;16.29;58.10
40908;BME280;51055;59.436;24.778;2023-04-25T07:23:19;100249.56;;;18.61;53.14
40908;BME280;51055;59.436;24.778;2023-04-25T07:25:47;100253.44;;;19.39;47.74
40908;BME280;51055;59.436;24.778;2023-04-25T07:28:15;100255.25;;;17.69;52.22
40908;BME280;51055;59.436;24.778;2023-04-25T07:30:46;100255.84;;;16.79;55.46
40908;BME280;51055;59.436;24.778;2023-04-25T07:33:13;100263.81;;;15.75;57.46
40908;BME280;51055;59.436;24.778;2023-04-25T07:35:42;100263.41;;;15.46;59.50
40908;BME280;51055;59.436;24.778;2023-04-25T07:38:10;100264.19;;;15.14;61.40
40908;BME280;51055;59.436;24.778;2023-04-25T07:40:37;100259.25;;;14.93;61.95
40908;BME280;51055;59.436;24.778;2023-04-25T07:43:05;100255.22;;;14.81;62.86
40908;BME280;51055;59.436;24.778;2023-04-25T07:45:33;100254.00;;;16.00;59.00
40908;BME280;51055;59.436;24.778;2023-04-25T07:48:01;100253.41;;;15.48;59.09
40908;BME280;51055;59.436;24.778;2023-04-25T07:50:30;100252.84;;;15.20;57.78
40908;BME280;51055;59.436;24.778;2023-04-25T07:52:59;100252.13;;;15.10;58.44
40908;BME280;51055;59.436;24.778;2023-04-25T07:55:27;100245.75;;;15.77;60.84
40908;BME280;51055;59.436;24.778;2023-04-25T07:57:55;100243.28;;;16.79;53.92
40908;BME280;51055;59.436;24.778;2023-04-25T08:00:23;100249.38;;;16.65;54.13
40908;BME280;51055;59.436;24.778;2023-04-25T08:02:51;100242.94;;;16.82;53.39
40908;BME280;51055;59.436;24.778;2023-04-25T08:05:19;100244.47;;;17.15;51.49
40908;BME280;51055;59.436;24.778;2023-04-25T08:07:49;100236.81;;;17.89;50.42
40908;BME280;51055;59.436;24.778;2023-04-25T08:10:17;100233.88;;;20.08;44.75
40908;BME280;51055;59.436;24.778;2023-04-25T08:12:45;100234.28;;;20.61;43.98
40908;BME280;51055;59.436;24.778;2023-04-25T08:15:13;100230.47;;;20.00;44.44
40908;BME280;51055;59.436;24.778;2023-04-25T08:17:41;100222.09;;;19.31;46.68
40908;BME280;51055;59.436;24.778;2023-04-25T08:20:09;100244.09;;;18.55;47.69
40908;BME280;51055;59.436;24.778;2023-04-25T08:22:39;100224.16;;;17.97;48.55
40908;BME280;51055;59.436;24.778;2023-04-25T08:25:06;100228.19;;;17.48;48.12
40908;BME280;51055;59.436;24.778;2023-04-25T08:27:34;100234.00;;;17.29;47.77
40908;BME280;51055;59.436;24.778;2023-04-25T08:30:03;100229.84;;;17.26;49.09
40908;BME280;51055;59.436;24.778;2023-04-25T08:32:33;100232.75;;;17.16;47.98
40908;BME280;51055;59.436;24.778;2023-04-25T08:35:02;100247.84;;;17.09;45.40
40908;BME280;51055;59.436;24.778;2023-04-25T08:37:29;100237.31;;;17.08;45.21
40908;BME280;51055;59.436;24.778;2023-04-25T08:39:57;100236.84;;;17.04;46.14
40908;BME280;51055;59.436;24.778;2023-04-25T08:42:27;100238.28;;;17.15;46.75
40908;BME280;51055;59.436;24.778;2023-04-25T08:44:55;100241.16;;;17.13;46.44
40908;BME280;51055;59.436;24.778;2023-04-25T08:47:24;100232.91;;;17.15;46.03
40908;BME280;51055;59.436;24.778;2023-04-25T08:49:54;100236.63;;;17.14;46.37
40908;BME280;51055;59.436;24.778;2023-04-25T08:52:23;100237.28;;;17.16;46.70
40908;BME280;51055;59.436;24.778;2023-04-25T08:54:52;100231.53;;;17.27;47.23
40908;BME280;51055;59.436;24.778;2023-04-25T08:57:22;100235.69;;;17.30;47.49
40908;BME280;51055;59.436;24.778;2023-04-25T08:59:51;100231.09;;;17.38;45.52
40908;BME280;51055;59.436;24.778;2023-04-25T09:02:20;100240.88;;;17.54;43.94
40908;BME280;51055;59.436;24.778;2023-04-25T09:04:49;100230.13;;;17.62;43.84
40908;BME280;51055;59.436;24.778;2023-04-25T09:07:17;100229.72;;;17.73;44.08
40908;BME280;51055;59.436;24.778;2023-04-25T09:09:48;100240.28;;;17.75;44.04
40908;BME280;51055;59.436;24.778;2023-04-25T09:12:19;100239.06;;;17.77;43.59
40908;BME280;51055;59.436;24.778;2023-04-25T09:17:31;100251.94;;;17.82;43.33
40908;BME280;51055;59.436;24.778;2023-04-25T09:20:09;100249.88;;;17.92;42.90
40908;BME280;51055;59.436;24.778;2023-04-25T09:22:38;100243.75;;;17.98;42.83
40908;BME280;51055;59.436;24.778;2023-04-25T09:25:10;100241.81;;;17.92;42.65
40908;BME280;51055;59.436;24.778;2023-04-25T09:27:58;100244.97;;;17.95;42.70
40908;BME280;51055;59.436;24.778;2023-04-25T09:30:33;100242.19;;;17.89;42.72
40908;BME280;51055;59.436;24.778;2023-04-25T09:33:08;100241.75;;;17.77;43.14
40908;BME280;51055;59.436;24.778;2023-04-25T09:35:41;100245.34;;;17.69;43.85
40908;BME280;51055;59.436;24.778;2023-04-25T09:38:14;100238.47;;;17.67;42.85
40908;BME280;51055;59.436;24.778;2023-04-25T09:40:44;100237.19;;;17.63;43.59
40908;BME280;51055;59.436;24.778;2023-04-25T09:43:20;100241.47;;;17.72;44.19
40908;BME280;51055;59.436;24.778;2023-04-25T09:45:49;100239.78;;;17.71;42.58
40908;BME280;51055;59.436;24.778;2023-04-25T09:48:20;100245.16;;;17.71;43.92
40908;BME280;51055;59.436;24.778;2023-04-25T09:51:17;100250.03;;;17.67;43.98
40908;BME280;51055;59.436;24.778;2023-04-25T09:53:46;100254.56;;;17.67;43.63
40908;BME280;51055;59.436;24.778;2023-04-25T09:56:19;100249.91;;;17.61;42.72
40908;BME280;51055;59.436;24.778;2023-04-25T09:58:50;100256.13;;;17.61;42.70
40908;BME280;51055;59.436;24.778;2023-04-25T10:01:21;100256.69;;;17.57;42.49
40908;BME280;51055;59.436;24.778;2023-04-25T10:03:51;100256.31;;;17.60;41.80
40908;BME280;51055;59.436;24.778;2023-04-25T10:06:22;100261.81;;;17.66;42.01
40908;BME280;51055;59.436;24.778;2023-04-25T10:08:53;100258.03;;;17.76;42.02
40908;BME280;51055;59.436;24.778;2023-04-25T10:11:24;100261.44;;;17.92;42.02
40908;BME280;51055;59.436;24.778;2023-04-25T10:13:53;100259.19;;;18.18;42.37
40908;BME280;51055;59.436;24.778;2023-04-25T10:16:22;100257.44;;;18.26;42.57
40908;BME280;51055;59.436;24.778;2023-04-25T10:18:50;100257.50;;;18.17;42.86
40908;BME280;51055;59.436;24.778;2023-04-25T10:21:19;100267.31;;;18.10;42.73
40908;BME280;51055;59.436;24.778;2023-04-25T10:23:49;100263.13;;;18.08;42.99
40908;BME280;51055;59.436;24.778;2023-04-25T10:26:17;100264.88;;;18.01;41.84
40908;BME280;51055;59.436;24.778;2023-04-25T10:28:56;100256.91;;;17.93;42.25
40908;BME280;51055;59.436;24.778;2023-04-25T10:31:25;100260.22;;;17.95;42.35
40908;BME280;51055;59.436;24.778;2023-04-25T10:33:53;100253.97;;;18.02;42.93
40908;BME280;51055;59.436;24.778;2023-04-25T10:36:22;100249.56;;;18.09;42.61
40908;BME280;51055;59.436;24.778;2023-04-25T10:38:51;100257.09;;;18.29;41.54
40908;BME280;51055;59.436;24.778;2023-04-25T10:41:21;100255.69;;;18.33;41.67
40908;BME280;51055;59.436;24.778;2023-04-25T10:43:59;100256.03;;;18.30;41.41
40908;BME280;51055;59.436;24.778;2023-04-25T10:46:29;100263.03;;;18.39;40.41
40908;BME280;51055;59.436;24.778;2023-04-25T10:49:01;100251.84;;;18.50;37.52
40908;BME280;51055;59.436;24.778;2023-04-25T10:51:31;100269.47;;;18.67;35.77
40908;BME280;51055;59.436;24.778;2023-04-25T10:54:22;100264.72;;;18.69;35.86
40908;BME280;51055;59.436;24.778;2023-04-25T10:56:52;100269.66;;;18.80;35.82
40908;BME280;51055;59.436;24.778;2023-04-25T10:59:24;100260.50;;;18.75;36.13
40908;BME280;51055;59.436;24.778;2023-04-25T11:01:52;100265.88;;;18.75;36.32
40908;BME280;51055;59.436;24.778;2023-04-25T11:04:29;100268.34;;;18.76;35.39
40908;BME280;51055;59.436;24.778;2023-04-25T11:07:17;100269.84;;;18.64;35.45
40908;BME280;51055;59.436;24.778;2023-04-25T11:09:50;100269.13;;;18.47;39.30
40908;BME280;51055;59.436;24.778;2023-04-25T11:12:18;100273.22;;;18.43;35.05
40908;BME280;51055;59.436;24.778;2023-04-25T11:14:46;100274.19;;;18.50;35.31
40908;BME280;51055;59.436;24.778;2023-04-25T11:17:14;100265.94;;;18.52;36.41
40908;BME280;51055;59.436;24.778;2023-04-25T11:19:42;100269.47;;;18.67;35.84
40908;BME280;51055;59.436;24.778;2023-04-25T11:22:10;100266.69;;;18.90;36.82
40908;BME280;51055;59.436;24.778;2023-04-25T11:24:39;100262.78;;;18.92;36.12
40908;BME280;51055;59.436;24.778;2023-04-25T11:27:08;100257.31;;;19.00;34.52
40908;BME280;51055;59.436;24.778;2023-04-25T11:29:36;100259.25;;;19.06;33.86
40908;BME280;51055;59.436;24.778;2023-04-25T11:32:04;100252.19;;;19.20;32.92
40908;BME280;51055;59.436;24.778;2023-04-25T11:34:33;100257.66;;;19.12;31.51
40908;BME280;51055;59.436;24.778;2023-04-25T11:37:02;100256.94;;;19.03;32.73
40908;BME280;51055;59.436;24.778;2023-04-25T11:39:30;100264.47;;;18.93;33.29
40908;BME280;51055;59.436;24.778;2023-04-25T11:41:57;100258.28;;;18.78;33.11
40908;BME280;51055;59.436;24.778;2023-04-25T11:44:29;100264.47;;;18.64;34.69
40908;BME280;51055;59.436;24.778;2023-04-25T11:46:57;100264.53;;;18.56;33.80
40908;BME280;51055;59.436;24.778;2023-04-25T11:49:30;100275.84;;;18.66;34.10
40908;BME280;51055;59.436;24.778;2023-04-25T11:51:58;100280.50;;;18.57;35.77
40908;BME280;51055;59.436;24.778;2023-04-25T11:54:26;100291.25;;;18.49;36.21
40908;BME280;51055;59.436;24.778;2023-04-25T11:56:54;100285.56;;;18.52;36.51
40908;BME280;51055;59.436;24.778;2023-04-25T11:59:25;100292.06;;;18.58;36.57
40908;BME280;51055;59.436;24.778;2023-04-25T12:01:53;100290.22;;;18.58;35.65
40908;BME280;51055;59.436;24.778;2023-04-25T12:04:22;100293.00;;;18.65;35.56
40908;BME280;51055;59.436;24.778;2023-04-25T12:06:53;100292.84;;;18.81;34.94
40908;BME280;51055;59.436;24.778;2023-04-25T12:09:29;100285.50;;;18.90;34.88
40908;BME280;51055;59.436;24.778;2023-04-25T12:11:58;100302.25;;;18.92;34.34
40908;BME280;51055;59.436;24.778;2023-04-25T12:14:28;100291.63;;;18.84;34.51
40908;BME280;51055;59.436;24.778;2023-04-25T12:16:58;100297.84;;;18.84;34.52
40908;BME280;51055;59.436;24.778;2023-04-25T12:19:34;100300.31;;;18.86;34.72
40908;BME280;51055;59.436;24.778;2023-04-25T12:22:03;100289.03;;;18.90;34.64
40908;BME280;51055;59.436;24.778;2023-04-25T12:24:46;100287.34;;;19.04;35.06
40908;BME280;51055;59.436;24.778;2023-04-25T12:27:15;100288.06;;;18.98;34.88
40908;BME280;51055;59.436;24.778;2023-04-25T12:29:54;100276.97;;;19.01;36.41
40908;BME280;51055;59.436;24.778;2023-04-25T12:32:23;100274.38;;;19.07;35.62
40908;BME280;51055;59.436;24.778;2023-04-25T12:34:51;100265.25;;;19.08;35.52
40908;BME280;51055;59.436;24.778;2023-04-25T12:37:19;100273.72;;;19.05;35.61
40908;BME280;51055;59.436;24.778;2023-04-25T12:39:47;100262.78;;;19.07;34.61
40908;BME280;51055;59.436;24.778;2023-04-25T12:42:15;100256.75;;;19.05;34.23
40908;BME280;51055;59.436;24.778;2023-04-25T12:44:42;100264.16;;;19.03;34.17
40908;BME280;51055;59.436;24.778;2023-04-25T12:47:10;100259.44;;;19.05;34.09
40908;BME280;51055;59.436;24.778;2023-04-25T12:49:38;100266.09;;;19.09;33.88